This is the latest recevied weather packets stored in our database for station/object WK7G. If no packets are shown the sender has not sent any weather packets the latest 10 day(s).
| Time | Temp. | Humidity | Pressure | Rain* | Wind** | Luminosity | Snow |
|---|---|---|---|---|---|---|---|
| 1777898309 | 1.11° C | 73% | 1004.2 hPa | 0 mm | - | 16 W/m² | - |
| 1777898006 | 1.67° C | 71% | 1004.3 hPa | 0 mm | - | 12 W/m² | - |
| 1777897702 | 1.67° C | 71% | 1004.4 hPa | 0 mm | - | 10 W/m² | - |
| 1777897399 | 2.22° C | 69% | 1004.4 hPa | 0 mm | - | 5 W/m² | - |
| 1777897095 | 1.67° C | 69% | 1004.4 hPa | 0 mm | - | 3 W/m² | - |
| 1777896791 | 1.11° C | 72% | 1004.4 hPa | 0 mm | - | 1 W/m² | - |
| 1777896489 | 2.22° C | 69% | 1004.3 hPa | 0 mm | - | 0 W/m² | - |
| 1777896186 | 2.78° C | 65% | 1004.4 hPa | 0 mm | - | 0 W/m² | - |
| 1777895884 | 2.22° C | 68% | 1004.4 hPa | 0 mm | - | 0 W/m² | - |
| 1777895581 | 1.11° C | 72% | 1004.6 hPa | 0 mm | - | 0 W/m² | - |
| 1777895278 | 2.22° C | 70% | 1004.4 hPa | 0 mm | - | 0 W/m² | - |
| 1777894976 | 5.56° C | 60% | 1004.6 hPa | 0 mm | - | 0 W/m² | - |
| 1777894673 | 5.56° C | 56% | 1004.5 hPa | 0 mm | - | 0 W/m² | - |
| 1777894369 | 4.44° C | 62% | 1004.3 hPa | 0 mm | - | 0 W/m² | - |
| 1777894068 | 3.33° C | 65% | 1004.4 hPa | 0 mm | - | 0 W/m² | - |
| 1777893764 | 3.33° C | 64% | 1004.3 hPa | 0 mm | - | 0 W/m² | - |
| 1777893461 | 3.33° C | 64% | 1004.2 hPa | 0 mm | - | 0 W/m² | - |
| 1777893157 | 2.22° C | 69% | 1004.2 hPa | 0 mm | - | 0 W/m² | - |
| 1777892853 | 2.22° C | 70% | 1004.3 hPa | 0 mm | - | 0 W/m² | - |
| 1777892550 | 3.33° C | 65% | 1004.3 hPa | 0 mm | - | 0 W/m² | - |
| 1777892245 | 3.33° C | 65% | 1004.5 hPa | 0 mm | - | 0 W/m² | - |
| 1777891942 | 3.33° C | 66% | 1004.4 hPa | 0 mm | - | 0 W/m² | - |
| 1777891640 | 2.78° C | 65% | 1004.2 hPa | 0 mm | - | 0 W/m² | - |
| 1777891336 | 2.78° C | 68% | 1004.3 hPa | 0 mm | - | 0 W/m² | - |
| 1777891032 | 2.78° C | 67% | 1004.3 hPa | 0 mm | - | 0 W/m² | - |
* Rain latest hour (hover to see other rain measurements)
** Current wind speed in m/s (hover to see current wind gust speed)